Time;durP1;ratioP1;P1;durP2;ratioP2;P2;SDS_P1;SDS_P2;PMS_P1;PMS_P2;Temp;Humidity;BMP_temperature;BMP_pressure;BME280_temperature;BME280_humidity;BME280_pressure;Samples;Min_cycle;Max_cycle;Signal;HPM_P1;HPM_P2
2022/12/18 00:02:13;;;;;;;58.83;26.92;;;;;;;;;;4977547;28;20673;-64
2022/12/18 00:04:40;;;;;;;56.75;29.45;;;;;;;;;;4977572;28;20222;-64
2022/12/18 00:07:08;;;;;;;59.13;28.15;;;;;;;;;;4977257;28;20241;-64
2022/12/18 00:09:35;;;;;;;61.40;29.83;;;;;;;;;;4977986;28;20581;-65
2022/12/18 00:12:02;;;;;;;62.22;31.05;;;;;;;;;;4977046;28;20257;-64
2022/12/18 00:14:29;;;;;;;60.40;28.95;;;;;;;;;;4977319;28;20201;-65
2022/12/18 00:17:00;;;;;;;66.68;30.52;;;;;;;;;;4977791;28;20516;-65
2022/12/18 00:19:27;;;;;;;69.43;30.60;;;;;;;;;;4978000;28;20574;-65
2022/12/18 00:21:55;;;;;;;58.45;26.92;;;;;;;;;;4976882;28;20208;-64
2022/12/18 00:24:22;;;;;;;61.85;29.65;;;;;;;;;;4976938;28;20565;-64
2022/12/18 00:26:49;;;;;;;61.95;29.63;;;;;;;;;;4977219;28;20224;-65
2022/12/18 00:29:16;;;;;;;59.40;26.40;;;;;;;;;;4977155;28;20229;-65
2022/12/18 00:31:44;;;;;;;56.15;29.90;;;;;;;;;;4976870;28;20207;-65
2022/12/18 00:34:13;;;;;;;62.45;28.45;;;;;;;;;;4976894;28;20197;-65
2022/12/18 00:36:40;;;;;;;54.85;30.25;;;;;;;;;;4977098;28;20232;-64
2022/12/18 00:39:08;;;;;;;55.97;28.25;;;;;;;;;;4976570;28;20685;-65
2022/12/18 00:44:21;;;;;;;52.83;27.25;;;;;;;;;;4975622;28;20185;-65
2022/12/18 00:46:48;;;;;;;60.65;27.00;;;;;;;;;;4976642;28;20204;-64
2022/12/18 00:49:17;;;;;;;53.50;28.45;;;;;;;;;;4976470;28;20698;-64
2022/12/18 00:51:44;;;;;;;68.13;29.70;;;;;;;;;;4976377;28;20207;-64
2022/12/18 00:54:12;;;;;;;52.92;26.88;;;;;;;;;;4976696;28;20211;-64
2022/12/18 00:56:39;;;;;;;63.35;28.42;;;;;;;;;;4976318;28;20292;-64
2022/12/18 00:59:06;;;;;;;54.10;29.00;;;;;;;;;;4976548;28;20198;-64
2022/12/18 01:01:33;;;;;;;58.85;28.77;;;;;;;;;;4976324;28;20673;-64
2022/12/18 01:04:01;;;;;;;65.68;30.42;;;;;;;;;;4975948;28;20261;-64
2022/12/18 01:06:30;;;;;;;56.55;30.98;;;;;;;;;;4976865;28;20718;-64
2022/12/18 01:08:57;;;;;;;50.45;28.17;;;;;;;;;;4976494;28;20217;-64
2022/12/18 01:11:24;;;;;;;58.33;30.13;;;;;;;;;;4976590;28;20205;-64
2022/12/18 01:13:53;;;;;;;55.38;30.15;;;;;;;;;;4976552;28;20200;-65
2022/12/18 01:16:20;;;;;;;64.25;28.70;;;;;;;;;;4977061;28;20542;-64
2022/12/18 01:18:47;;;;;;;54.78;29.10;;;;;;;;;;4976160;28;20211;-65
2022/12/18 01:21:16;;;;;;;74.55;33.60;;;;;;;;;;4976285;28;20607;-64
2022/12/18 01:23:48;;;;;;;71.75;30.42;;;;;;;;;;4976070;28;20204;-64
2022/12/18 01:26:16;;;;;;;61.13;32.28;;;;;;;;;;4975779;28;20240;-64
2022/12/18 01:28:44;;;;;;;66.35;32.17;;;;;;;;;;4976248;28;20227;-64
2022/12/18 01:31:12;;;;;;;62.95;30.77;;;;;;;;;;4976037;28;20205;-64
2022/12/18 01:33:39;;;;;;;70.57;32.70;;;;;;;;;;4976260;28;20200;-64
2022/12/18 01:36:07;;;;;;;61.58;34.00;;;;;;;;;;4975936;28;20633;-65
2022/12/18 01:38:34;;;;;;;63.75;29.00;;;;;;;;;;4975769;28;20292;-64
2022/12/18 01:41:03;;;;;;;57.10;30.13;;;;;;;;;;4975875;28;20575;-64
2022/12/18 01:43:47;;;;;;;56.13;26.77;;;;;;;;;;4975398;28;20667;-65
2022/12/18 01:46:15;;;;;;;60.13;28.83;;;;;;;;;;4976229;28;20192;-65
2022/12/18 01:48:42;;;;;;;48.90;26.85;;;;;;;;;;4975655;28;20225;-65
2022/12/18 01:51:10;;;;;;;60.75;30.98;;;;;;;;;;4975908;28;20209;-64
2022/12/18 01:53:38;;;;;;;67.82;32.88;;;;;;;;;;4975856;28;20197;-64
2022/12/18 01:56:07;;;;;;;69.88;34.38;;;;;;;;;;4974915;28;20657;-64
2022/12/18 01:58:38;;;;;;;65.10;30.67;;;;;;;;;;4975631;28;20206;-64
2022/12/18 02:01:05;;;;;;;64.22;31.13;;;;;;;;;;4975232;28;20642;-64
2022/12/18 02:03:32;;;;;;;61.60;30.42;;;;;;;;;;4975225;28;20229;-64
2022/12/18 02:06:02;;;;;;;56.28;29.02;;;;;;;;;;4975045;28;20610;-64
2022/12/18 02:08:34;;;;;;;55.83;28.35;;;;;;;;;;4974856;28;20197;-64
2022/12/18 02:11:06;;;;;;;64.93;28.45;;;;;;;;;;4975591;28;20201;-64
2022/12/18 02:13:39;;;;;;;58.58;31.25;;;;;;;;;;4975329;28;20200;-64
2022/12/18 02:16:09;;;;;;;78.50;30.70;;;;;;;;;;4975309;28;20225;-64
2022/12/18 02:18:38;;;;;;;48.72;24.23;;;;;;;;;;4975475;28;20649;-67
2022/12/18 02:21:10;;;;;;;59.05;27.10;;;;;;;;;;4974935;28;20225;-64
2022/12/18 02:23:46;;;;;;;51.65;27.25;;;;;;;;;;4975159;28;20188;-64
2022/12/18 02:26:18;;;;;;;51.47;27.88;;;;;;;;;;4975013;28;20197;-64
2022/12/18 02:28:47;;;;;;;54.92;27.60;;;;;;;;;;4974887;28;20217;-64
2022/12/18 02:31:16;;;;;;;53.95;29.23;;;;;;;;;;4974619;28;20198;-64
2022/12/18 02:33:45;;;;;;;46.67;26.95;;;;;;;;;;4974537;28;20292;-64
2022/12/18 02:36:14;;;;;;;49.65;26.63;;;;;;;;;;4975212;28;20202;-64
2022/12/18 02:38:43;;;;;;;48.80;27.27;;;;;;;;;;4974455;28;20237;-64
2022/12/18 02:41:10;;;;;;;43.40;23.88;;;;;;;;;;4974783;28;20223;-64
2022/12/18 02:43:38;;;;;;;63.88;28.70;;;;;;;;;;4974771;28;20205;-63
2022/12/18 02:46:21;;;;;;;55.05;25.00;;;;;;;;;;4974465;28;20196;-64
2022/12/18 02:48:48;;;;;;;47.83;26.40;;;;;;;;;;4974407;28;20697;-64
2022/12/18 02:51:20;;;;;;;51.60;27.95;;;;;;;;;;4974465;28;20211;-65
2022/12/18 02:53:52;;;;;;;50.90;27.33;;;;;;;;;;4975382;28;20203;-64
2022/12/18 02:56:21;;;;;;;63.20;30.48;;;;;;;;;;4974801;28;20280;-64
2022/12/18 02:58:56;;;;;;;53.25;27.70;;;;;;;;;;4974822;28;20197;-64
2022/12/18 03:01:26;;;;;;;55.20;27.55;;;;;;;;;;4975318;28;20202;-64
2022/12/18 03:03:57;;;;;;;56.65;28.00;;;;;;;;;;4974623;28;20237;-64
2022/12/18 03:06:25;;;;;;;45.97;26.33;;;;;;;;;;4973783;28;20182;-64
2022/12/18 03:08:54;;;;;;;60.53;27.75;;;;;;;;;;4974111;28;20239;-64
2022/12/18 03:12:22;;;;;;;51.20;26.45;;;;;;;;;;4974371;28;20283;-64
2022/12/18 03:14:21;;;;;;;58.83;29.08;;;;;;;;;;4974069;28;20332;-64
2022/12/18 03:16:50;;;;;;;49.75;28.38;;;;;;;;;;4974185;28;20288;-65
2022/12/18 03:19:20;;;;;;;61.03;28.58;;;;;;;;;;4974513;28;20205;-64
2022/12/18 03:21:48;;;;;;;48.67;25.95;;;;;;;;;;4974549;28;20204;-64
2022/12/18 03:24:16;;;;;;;48.97;29.55;;;;;;;;;;4973970;28;20697;-64
2022/12/18 03:26:45;;;;;;;44.15;24.52;;;;;;;;;;4974783;28;20284;-64
2022/12/18 03:29:17;;;;;;;58.38;28.17;;;;;;;;;;4973985;28;20221;-65
2022/12/18 03:31:49;;;;;;;65.20;32.78;;;;;;;;;;4974870;28;20237;-64
2022/12/18 03:34:19;;;;;;;50.70;27.08;;;;;;;;;;4974649;28;20197;-64
2022/12/18 03:36:46;;;;;;;67.85;29.33;;;;;;;;;;4974159;28;20205;-64
2022/12/18 03:39:14;;;;;;;55.28;28.23;;;;;;;;;;4974212;28;20219;-64
2022/12/18 03:41:45;;;;;;;52.63;28.80;;;;;;;;;;4973784;28;20228;-65
2022/12/18 03:44:14;;;;;;;47.22;25.13;;;;;;;;;;4973960;28;20656;-65
2022/12/18 03:46:43;;;;;;;49.42;26.67;;;;;;;;;;4974152;28;20198;-65
2022/12/18 03:49:13;;;;;;;46.78;24.98;;;;;;;;;;4974217;28;20225;-65
2022/12/18 03:51:42;;;;;;;48.47;22.83;;;;;;;;;;4974093;28;20292;-65
2022/12/18 03:54:10;;;;;;;41.63;22.92;;;;;;;;;;4974147;28;20542;-64
2022/12/18 03:56:39;;;;;;;43.03;24.10;;;;;;;;;;4974036;28;20197;-65
2022/12/18 03:59:06;;;;;;;43.85;22.70;;;;;;;;;;4974128;28;20224;-65
2022/12/18 04:01:35;;;;;;;48.65;24.33;;;;;;;;;;4973909;28;20200;-65
2022/12/18 04:04:04;;;;;;;48.08;24.10;;;;;;;;;;4973868;28;20244;-64
2022/12/18 04:06:33;;;;;;;42.58;22.73;;;;;;;;;;4973647;28;20288;-64
2022/12/18 04:09:01;;;;;;;46.00;22.08;;;;;;;;;;4973975;28;20203;-64
2022/12/18 04:11:28;;;;;;;45.22;25.05;;;;;;;;;;4974030;28;20239;-64
2022/12/18 04:13:57;;;;;;;48.97;24.40;;;;;;;;;;4973894;28;20206;-65
2022/12/18 04:16:24;;;;;;;49.08;25.83;;;;;;;;;;4973822;28;20202;-65
2022/12/18 04:18:52;;;;;;;45.03;24.08;;;;;;;;;;4976604;28;20620;-65
2022/12/18 04:21:19;;;;;;;47.90;28.33;;;;;;;;;;4976983;28;20201;-65
2022/12/18 04:23:47;;;;;;;49.83;28.33;;;;;;;;;;4977642;28;20295;-65
2022/12/18 04:26:15;;;;;;;53.65;28.27;;;;;;;;;;4977064;28;20200;-65
2022/12/18 04:28:42;;;;;;;59.28;28.42;;;;;;;;;;4977405;28;20240;-65
2022/12/18 04:31:09;;;;;;;71.22;30.60;;;;;;;;;;4976993;28;20315;-65
2022/12/18 04:33:36;;;;;;;59.75;29.98;;;;;;;;;;4977379;28;20203;-65
2022/12/18 04:36:04;;;;;;;42.50;24.73;;;;;;;;;;4976436;28;20648;-65
2022/12/18 04:38:31;;;;;;;44.20;24.73;;;;;;;;;;4975574;28;20200;-65
2022/12/18 04:41:00;;;;;;;37.40;20.42;;;;;;;;;;4957521;28;20216;-65
2022/12/18 04:43:32;;;;;;;33.50;19.00;;;;;;;;;;4957702;28;20295;-65
2022/12/18 04:46:03;;;;;;;32.63;19.25;;;;;;;;;;4957339;28;20716;-64
2022/12/18 04:48:30;;;;;;;33.00;21.50;;;;;;;;;;4957300;28;20205;-65
2022/12/18 04:50:57;;;;;;;42.95;21.55;;;;;;;;;;4957189;28;20240;-65
2022/12/18 04:53:25;;;;;;;35.45;20.98;;;;;;;;;;4957120;28;20571;-65
2022/12/18 04:55:52;;;;;;;36.75;21.25;;;;;;;;;;4957182;28;20201;-64
2022/12/18 04:58:21;;;;;;;34.35;20.15;;;;;;;;;;4957415;28;20204;-64
2022/12/18 05:00:48;;;;;;;37.25;20.25;;;;;;;;;;4956775;28;20671;-65
2022/12/18 05:03:15;;;;;;;35.95;19.92;;;;;;;;;;4956851;28;20321;-64
2022/12/18 05:05:42;;;;;;;36.95;19.40;;;;;;;;;;4956765;28;20200;-65
2022/12/18 05:08:09;;;;;;;34.63;20.58;;;;;;;;;;4956929;28;20194;-66
2022/12/18 05:10:37;;;;;;;39.72;19.10;;;;;;;;;;4956912;28;20231;-64
2022/12/18 05:13:04;;;;;;;39.15;20.52;;;;;;;;;;4956461;28;20212;-64
2022/12/18 05:15:33;;;;;;;35.13;19.70;;;;;;;;;;4957145;28;20293;-64
2022/12/18 05:18:00;;;;;;;35.25;20.52;;;;;;;;;;4956469;28;20285;-65
2022/12/18 05:20:28;;;;;;;34.65;19.92;;;;;;;;;;4956924;28;20202;-65
2022/12/18 05:22:56;;;;;;;33.33;19.55;;;;;;;;;;4956406;28;20664;-65
2022/12/18 05:25:23;;;;;;;37.63;19.80;;;;;;;;;;4956770;28;20232;-65
2022/12/18 05:27:51;;;;;;;26.05;17.80;;;;;;;;;;4956572;28;20202;-64
2022/12/18 05:30:18;;;;;;;37.72;18.10;;;;;;;;;;4955611;28;20293;-65
2022/12/18 05:32:47;;;;;;;35.55;19.60;;;;;;;;;;4956713;28;20198;-65
2022/12/18 05:35:14;;;;;;;33.08;18.05;;;;;;;;;;4956280;28;20206;-65
2022/12/18 05:37:41;;;;;;;37.28;21.40;;;;;;;;;;4956275;28;20200;-64
2022/12/18 05:40:09;;;;;;;38.55;19.60;;;;;;;;;;4956610;28;20323;-65
2022/12/18 05:42:36;;;;;;;35.63;22.05;;;;;;;;;;4956121;28;20660;-64
2022/12/18 05:45:03;;;;;;;37.47;18.42;;;;;;;;;;4956415;28;20200;-65
2022/12/18 05:47:31;;;;;;;36.33;19.85;;;;;;;;;;4956280;28;20288;-64
2022/12/18 05:49:59;;;;;;;29.13;19.75;;;;;;;;;;4956052;28;20221;-64
2022/12/18 05:52:26;;;;;;;32.38;18.80;;;;;;;;;;4955952;28;20258;-64
2022/12/18 05:54:54;;;;;;;34.40;18.70;;;;;;;;;;4956287;28;20289;-65
2022/12/18 05:57:21;;;;;;;37.03;18.35;;;;;;;;;;4956206;28;20292;-64
2022/12/18 05:59:48;;;;;;;28.00;17.13;;;;;;;;;;4956726;28;20221;-64
2022/12/18 06:02:15;;;;;;;34.70;20.13;;;;;;;;;;4955927;28;20237;-65
2022/12/18 06:04:43;;;;;;;29.83;18.38;;;;;;;;;;4955675;28;20313;-64
2022/12/18 06:07:11;;;;;;;31.60;17.40;;;;;;;;;;4955680;28;20208;-64
2022/12/18 06:09:38;;;;;;;28.33;17.27;;;;;;;;;;4955445;28;20203;-65
2022/12/18 06:12:06;;;;;;;24.25;17.25;;;;;;;;;;4955834;28;20554;-64
2022/12/18 06:14:33;;;;;;;28.83;18.42;;;;;;;;;;4955895;28;20194;-65
2022/12/18 06:17:01;;;;;;;29.55;19.88;;;;;;;;;;4955423;28;20687;-64
2022/12/18 06:19:28;;;;;;;38.05;19.33;;;;;;;;;;4956176;28;20194;-65
2022/12/18 06:21:57;;;;;;;26.85;18.45;;;;;;;;;;4955917;28;20205;-65
2022/12/18 06:24:26;;;;;;;30.42;16.70;;;;;;;;;;4955293;28;20237;-64
2022/12/18 06:26:53;;;;;;;26.08;17.67;;;;;;;;;;4955571;28;20200;-64
2022/12/18 06:29:20;;;;;;;26.25;16.23;;;;;;;;;;4955541;28;20301;-64
2022/12/18 06:31:47;;;;;;;30.58;16.60;;;;;;;;;;4955504;28;20662;-65
2022/12/18 06:34:14;;;;;;;30.08;16.85;;;;;;;;;;4955420;28;20198;-65
2022/12/18 06:36:42;;;;;;;27.73;17.25;;;;;;;;;;4955177;28;20229;-64
2022/12/18 06:39:09;;;;;;;30.35;16.92;;;;;;;;;;4955266;28;20256;-64
2022/12/18 06:41:37;;;;;;;38.33;18.25;;;;;;;;;;4955011;28;20213;-64
2022/12/18 06:44:05;;;;;;;32.00;16.25;;;;;;;;;;4955337;28;20386;-64
2022/12/18 06:46:33;;;;;;;30.52;16.10;;;;;;;;;;4955686;28;20305;-65
2022/12/18 06:49:00;;;;;;;20.02;14.48;;;;;;;;;;4955290;28;20198;-64
2022/12/18 06:51:27;;;;;;;26.60;16.20;;;;;;;;;;4955138;28;20230;-64
2022/12/18 06:53:54;;;;;;;25.42;15.45;;;;;;;;;;4955124;28;20201;-64
2022/12/18 06:56:22;;;;;;;27.40;13.70;;;;;;;;;;4955131;28;20234;-64
2022/12/18 06:58:50;;;;;;;26.27;15.88;;;;;;;;;;4954987;28;20647;-65
2022/12/18 07:01:18;;;;;;;26.17;15.13;;;;;;;;;;4955432;28;20212;-65
2022/12/18 07:03:45;;;;;;;24.23;15.57;;;;;;;;;;4954475;28;20234;-64
2022/12/18 07:06:16;;;;;;;23.17;15.00;;;;;;;;;;4954752;28;20202;-64
2022/12/18 07:08:43;;;;;;;28.10;15.35;;;;;;;;;;4955059;28;20249;-65
2022/12/18 07:11:10;;;;;;;27.52;14.60;;;;;;;;;;4955249;28;20637;-65
2022/12/18 07:13:37;;;;;;;24.52;15.23;;;;;;;;;;4955019;28;20563;-64
2022/12/18 07:16:07;;;;;;;23.90;14.57;;;;;;;;;;4955708;28;20241;-64
2022/12/18 07:18:35;;;;;;;22.90;15.55;;;;;;;;;;4955305;28;20721;-64
2022/12/18 07:21:04;;;;;;;21.27;13.25;;;;;;;;;;4955246;28;20208;-65
2022/12/18 07:23:31;;;;;;;24.10;16.10;;;;;;;;;;4955515;28;20198;-64
2022/12/18 07:26:01;;;;;;;25.48;15.75;;;;;;;;;;4954768;28;20208;-64
2022/12/18 07:28:29;;;;;;;25.65;15.10;;;;;;;;;;4955532;28;20249;-64
2022/12/18 07:30:56;;;;;;;25.80;16.10;;;;;;;;;;4955291;28;20221;-64
2022/12/18 07:33:24;;;;;;;19.95;13.95;;;;;;;;;;4954817;28;20603;-64
2022/12/18 07:35:52;;;;;;;23.25;14.35;;;;;;;;;;4955012;28;20209;-64
2022/12/18 07:38:19;;;;;;;24.50;13.88;;;;;;;;;;4954983;28;20639;-64
2022/12/18 07:40:46;;;;;;;25.50;14.65;;;;;;;;;;4955154;28;20582;-64
2022/12/18 07:43:13;;;;;;;21.23;13.98;;;;;;;;;;4954581;28;20249;-64
2022/12/18 07:45:40;;;;;;;24.98;14.38;;;;;;;;;;4954947;28;20555;-65
2022/12/18 07:48:08;;;;;;;27.40;13.57;;;;;;;;;;4954830;28;20198;-63
2022/12/18 07:50:36;;;;;;;21.63;13.70;;;;;;;;;;4954916;28;20224;-64
2022/12/18 07:53:04;;;;;;;23.73;14.27;;;;;;;;;;4955835;28;20204;-64
2022/12/18 07:55:31;;;;;;;18.58;10.85;;;;;;;;;;4958501;28;20660;-64
2022/12/18 07:58:02;;;;;;;22.30;12.32;;;;;;;;;;4958606;28;20617;-64
2022/12/18 08:00:29;;;;;;;22.45;11.25;;;;;;;;;;4958525;28;20256;-66
2022/12/18 08:02:56;;;;;;;20.60;13.77;;;;;;;;;;4958152;28;20714;-65
2022/12/18 08:05:23;;;;;;;27.70;14.38;;;;;;;;;;4958440;28;20192;-65
2022/12/18 08:07:52;;;;;;;21.20;12.23;;;;;;;;;;4958067;28;20229;-64
2022/12/18 08:10:19;;;;;;;26.20;13.10;;;;;;;;;;4957756;28;20209;-64
2022/12/18 08:12:46;;;;;;;18.20;12.40;;;;;;;;;;4957948;28;20289;-63
2022/12/18 08:15:14;;;;;;;19.98;12.00;;;;;;;;;;4958298;28;20555;-65
2022/12/18 08:17:41;;;;;;;15.20;11.90;;;;;;;;;;4958250;28;20233;-64
2022/12/18 08:20:09;;;;;;;20.05;13.68;;;;;;;;;;4958042;28;20204;-64
2022/12/18 08:22:36;;;;;;;16.98;11.65;;;;;;;;;;4958150;28;20210;-64
2022/12/18 08:25:05;;;;;;;16.45;11.43;;;;;;;;;;4957344;28;20210;-64
2022/12/18 08:27:33;;;;;;;17.75;12.70;;;;;;;;;;4958045;28;20555;-64
2022/12/18 08:30:00;;;;;;;19.65;12.73;;;;;;;;;;4958114;28;20280;-64
2022/12/18 08:32:28;;;;;;;20.63;12.70;;;;;;;;;;4957488;28;20222;-65
2022/12/18 08:34:55;;;;;;;23.85;13.10;;;;;;;;;;4957817;28;20212;-64
2022/12/18 08:37:22;;;;;;;17.25;11.15;;;;;;;;;;4957775;28;20296;-65
2022/12/18 08:39:49;;;;;;;18.38;11.77;;;;;;;;;;4957455;28;20211;-64
2022/12/18 08:45:03;;;;;;;18.98;12.25;;;;;;;;;;4958014;29;20182;-64
2022/12/18 08:47:30;;;;;;;18.95;11.48;;;;;;;;;;4957371;28;20216;-64
2022/12/18 08:49:57;;;;;;;16.85;11.45;;;;;;;;;;4957521;28;20229;-64
2022/12/18 08:52:25;;;;;;;20.33;13.82;;;;;;;;;;4957574;28;20313;-64
2022/12/18 08:54:52;;;;;;;23.83;12.90;;;;;;;;;;4957103;28;20205;-64
2022/12/18 08:57:20;;;;;;;16.30;12.38;;;;;;;;;;4958247;28;20577;-64
2022/12/18 08:59:48;;;;;;;24.52;13.65;;;;;;;;;;4957412;28;20205;-64
2022/12/18 09:02:15;;;;;;;27.75;14.88;;;;;;;;;;4957315;28;20204;-64
2022/12/18 09:04:42;;;;;;;17.23;12.00;;;;;;;;;;4956445;28;20328;-64
2022/12/18 09:07:10;;;;;;;16.02;11.93;;;;;;;;;;4957287;28;20201;-64
2022/12/18 09:09:37;;;;;;;19.73;12.38;;;;;;;;;;4957261;28;20600;-65
2022/12/18 09:12:09;;;;;;;18.73;9.98;;;;;;;;;;4957070;28;20699;-65
2022/12/18 09:14:38;;;;;;;14.65;10.68;;;;;;;;;;4956969;28;20192;-64
2022/12/18 09:17:05;;;;;;;22.08;13.63;;;;;;;;;;4957745;28;20208;-65
2022/12/18 09:19:33;;;;;;;17.02;12.15;;;;;;;;;;4956765;28;20208;-64
2022/12/18 09:22:00;;;;;;;17.15;11.07;;;;;;;;;;4957406;28;20293;-64
2022/12/18 09:24:27;;;;;;;17.85;12.68;;;;;;;;;;4957014;28;20806;-65
2022/12/18 09:26:55;;;;;;;18.20;12.55;;;;;;;;;;4957087;28;20197;-65
2022/12/18 09:29:22;;;;;;;19.02;12.02;;;;;;;;;;4957029;28;20198;-64
2022/12/18 09:31:51;;;;;;;14.50;11.73;;;;;;;;;;4956541;28;20257;-64
2022/12/18 09:34:20;;;;;;;16.40;13.73;;;;;;;;;;4956486;28;20285;-65
2022/12/18 09:36:47;;;;;;;18.15;11.75;;;;;;;;;;4957008;28;20209;-65
2022/12/18 09:39:15;;;;;;;20.83;13.48;;;;;;;;;;4956841;28;20195;-65
2022/12/18 09:41:47;;;;;;;32.35;16.75;;;;;;;;;;4956703;28;20213;-65
2022/12/18 09:44:17;;;;;;;19.02;11.63;;;;;;;;;;4957238;28;20214;-65
2022/12/18 09:46:46;;;;;;;21.45;11.05;;;;;;;;;;4956748;28;20572;-65
2022/12/18 09:49:16;;;;;;;15.73;11.55;;;;;;;;;;4956643;28;20541;-65
2022/12/18 09:51:45;;;;;;;18.38;11.45;;;;;;;;;;4956521;28;20214;-64
2022/12/18 09:54:14;;;;;;;15.02;10.65;;;;;;;;;;4956162;28;20209;-64
2022/12/18 09:56:43;;;;;;;22.20;10.60;;;;;;;;;;4956062;28;20245;-64
2022/12/18 09:59:18;;;;;;;14.80;9.65;;;;;;;;;;4956324;28;20194;-65
2022/12/18 10:01:45;;;;;;;15.05;10.23;;;;;;;;;;4955346;28;20639;-65
2022/12/18 10:04:14;;;;;;;15.07;10.75;;;;;;;;;;4956325;28;20234;-65
2022/12/18 10:06:45;;;;;;;13.27;10.57;;;;;;;;;;4956116;28;20202;-65
2022/12/18 10:09:18;;;;;;;14.70;10.27;;;;;;;;;;4956649;28;20193;-65
2022/12/18 10:11:49;;;;;;;14.40;8.75;;;;;;;;;;4955961;28;20718;-65
2022/12/18 10:14:19;;;;;;;15.40;10.88;;;;;;;;;;4956393;28;20274;-65
2022/12/18 10:16:51;;;;;;;14.15;10.35;;;;;;;;;;4955593;28;20281;-65
2022/12/18 10:19:25;;;;;;;11.88;9.93;;;;;;;;;;4955728;28;20202;-65
2022/12/18 10:21:57;;;;;;;17.50;10.85;;;;;;;;;;4956413;28;20190;-64
2022/12/18 10:24:28;;;;;;;13.85;9.40;;;;;;;;;;4955840;28;20278;-65
2022/12/18 10:26:57;;;;;;;15.23;9.77;;;;;;;;;;4955512;28;20187;-64
2022/12/18 10:29:26;;;;;;;22.88;10.80;;;;;;;;;;4955706;28;20558;-64
2022/12/18 10:31:53;;;;;;;17.90;12.30;;;;;;;;;;4955346;28;20214;-65
2022/12/18 10:34:22;;;;;;;17.17;11.05;;;;;;;;;;4956147;28;20547;-64
2022/12/18 10:36:49;;;;;;;16.48;10.27;;;;;;;;;;4955678;28;20292;-65
2022/12/18 10:39:17;;;;;;;17.13;9.88;;;;;;;;;;4955753;28;20201;-65
2022/12/18 10:41:45;;;;;;;14.43;10.32;;;;;;;;;;4955188;28;20234;-65
2022/12/18 10:44:13;;;;;;;15.50;10.68;;;;;;;;;;4955748;28;20285;-65
2022/12/18 10:46:41;;;;;;;16.65;10.77;;;;;;;;;;4955564;28;20285;-65
2022/12/18 10:49:19;;;;;;;14.57;8.90;;;;;;;;;;4955250;28;20734;-65
2022/12/18 10:51:48;;;;;;;18.85;10.57;;;;;;;;;;4955495;28;20269;-65
2022/12/18 10:54:16;;;;;;;18.23;11.13;;;;;;;;;;4955238;28;20290;-65
2022/12/18 10:56:43;;;;;;;20.33;12.05;;;;;;;;;;4955049;28;20202;-65
2022/12/18 10:59:11;;;;;;;17.95;11.85;;;;;;;;;;4955400;28;20194;-64
2022/12/18 11:01:49;;;;;;;20.25;10.93;;;;;;;;;;4955189;28;20212;-65
2022/12/18 11:04:19;;;;;;;15.85;10.93;;;;;;;;;;4955076;28;20237;-64
2022/12/18 11:06:56;;;;;;;14.88;11.80;;;;;;;;;;4954820;28;20590;-65
2022/12/18 11:09:24;;;;;;;14.15;9.90;;;;;;;;;;4955311;28;20190;-65
2022/12/18 11:11:52;;;;;;;16.05;11.13;;;;;;;;;;4954710;28;20321;-65
2022/12/18 11:14:22;;;;;;;13.88;10.38;;;;;;;;;;4954878;28;20209;-65
2022/12/18 11:16:50;;;;;;;18.80;12.20;;;;;;;;;;4954820;28;20190;-65
2022/12/18 11:19:24;;;;;;;15.75;11.35;;;;;;;;;;4955297;28;20200;-65
2022/12/18 11:21:51;;;;;;;13.68;9.95;;;;;;;;;;4955159;28;20246;-65
2022/12/18 11:24:24;;;;;;;16.25;10.48;;;;;;;;;;4954930;28;20198;-65
2022/12/18 11:26:52;;;;;;;44.42;26.30;;;;;;;;;;4955288;28;20186;-65
2022/12/18 11:29:20;;;;;;;19.17;11.80;;;;;;;;;;4958686;28;20733;-65
2022/12/18 11:31:47;;;;;;;16.00;10.40;;;;;;;;;;4958857;28;20587;-65
2022/12/18 11:34:15;;;;;;;17.67;12.65;;;;;;;;;;4959118;28;20288;-65
2022/12/18 11:36:44;;;;;;;15.35;11.20;;;;;;;;;;4958865;28;20633;-64
2022/12/18 11:39:15;;;;;;;18.10;11.85;;;;;;;;;;4958517;28;20198;-65
2022/12/18 11:44:37;;;;;;;15.13;11.95;;;;;;;;;;4957893;28;20694;-65
2022/12/18 11:47:10;;;;;;;15.75;11.80;;;;;;;;;;4958537;28;20222;-65
2022/12/18 11:49:39;;;;;;;44.38;35.88;;;;;;;;;;4958673;28;20193;-64
2022/12/18 11:52:11;;;;;;;74.95;60.78;;;;;;;;;;4958203;28;20655;-64
2022/12/18 11:54:38;;;;;;;62.03;49.80;;;;;;;;;;4958659;28;20274;-65
2022/12/18 11:57:10;;;;;;;52.28;38.90;;;;;;;;;;4958417;28;20201;-64
2022/12/18 11:59:42;;;;;;;31.42;22.25;;;;;;;;;;4958262;28;20663;-64
2022/12/18 12:02:23;;;;;;;29.35;19.15;;;;;;;;;;4958160;28;20198;-64
2022/12/18 12:04:58;;;;;;;21.15;16.05;;;;;;;;;;4958310;28;20234;-64
2022/12/18 12:07:30;;;;;;;18.58;12.02;;;;;;;;;;4958603;28;20214;-64
2022/12/18 12:10:01;;;;;;;16.05;11.85;;;;;;;;;;4958676;28;20190;-65
2022/12/18 12:12:45;;;;;;;19.60;11.25;;;;;;;;;;4957692;28;20214;-64
2022/12/18 12:15:15;;;;;;;14.20;9.90;;;;;;;;;;4962882;28;20221;-64
2022/12/18 12:17:47;;;;;;;14.48;11.30;;;;;;;;;;4977212;28;20273;-65
2022/12/18 12:20:17;;;;;;;16.60;11.00;;;;;;;;;;4977718;28;20264;-64
2022/12/18 12:22:47;;;;;;;15.23;11.20;;;;;;;;;;4977497;28;20276;-64
2022/12/18 12:25:26;;;;;;;12.63;10.05;;;;;;;;;;4977374;28;20217;-64
2022/12/18 12:28:00;;;;;;;18.98;11.07;;;;;;;;;;4977686;28;20204;-65
2022/12/18 12:30:31;;;;;;;33.47;21.45;;;;;;;;;;4977839;28;20640;-65
2022/12/18 12:33:10;;;;;;;30.48;18.27;;;;;;;;;;4977491;28;20220;-64
2022/12/18 12:35:44;;;;;;;17.30;11.20;;;;;;;;;;4977839;28;20583;-64
2022/12/18 12:38:13;;;;;;;19.60;11.80;;;;;;;;;;4976880;28;20199;-64
2022/12/18 12:40:42;;;;;;;14.23;11.55;;;;;;;;;;4977185;28;20204;-64
2022/12/18 12:43:18;;;;;;;15.60;9.93;;;;;;;;;;4976738;28;20213;-64
2022/12/18 12:45:48;;;;;;;15.32;11.60;;;;;;;;;;4976831;28;20193;-64
2022/12/18 12:48:22;;;;;;;18.98;11.85;;;;;;;;;;4976186;28;20188;-64
2022/12/18 12:50:49;;;;;;;18.70;12.48;;;;;;;;;;4970687;28;20197;-64
2022/12/18 12:53:23;;;;;;;14.50;10.90;;;;;;;;;;4956950;28;20228;-64
2022/12/18 12:55:50;;;;;;;15.10;10.60;;;;;;;;;;4957553;28;20193;-64
2022/12/18 12:58:22;;;;;;;14.85;11.15;;;;;;;;;;4957435;28;20224;-65
2022/12/18 13:00:55;;;;;;;16.17;10.15;;;;;;;;;;4957235;28;20229;-64
2022/12/18 13:03:29;;;;;;;18.63;10.45;;;;;;;;;;4956829;28;20270;-65
2022/12/18 13:06:00;;;;;;;14.57;10.95;;;;;;;;;;4957402;28;20204;-65
2022/12/18 13:08:28;;;;;;;19.25;11.20;;;;;;;;;;4956952;28;20257;-64
2022/12/18 13:12:55;;;;;;;13.75;10.02;;;;;;;;;;4957262;28;20556;-65
2022/12/18 13:13:52;;;;;;;12.68;9.13;;;;;;;;;;4956880;29;20217;-65
2022/12/18 13:16:21;;;;;;;16.17;10.40;;;;;;;;;;4957417;28;20220;-64
2022/12/18 13:18:51;;;;;;;13.10;9.60;;;;;;;;;;4956673;28;20206;-65
2022/12/18 13:21:23;;;;;;;16.40;9.93;;;;;;;;;;4957321;28;20653;-64
2022/12/18 13:23:50;;;;;;;17.08;10.60;;;;;;;;;;4957484;28;20201;-64
2022/12/18 13:26:31;;;;;;;14.73;10.50;;;;;;;;;;4956865;28;20293;-64
2022/12/18 13:29:01;;;;;;;17.13;9.48;;;;;;;;;;4957039;28;20254;-64
2022/12/18 13:31:47;;;;;;;13.90;11.13;;;;;;;;;;4956522;28;20206;-64
2022/12/18 13:34:17;;;;;;;16.23;10.15;;;;;;;;;;4956725;28;20743;-65
2022/12/18 13:36:44;;;;;;;14.18;10.23;;;;;;;;;;4956311;28;20679;-65
2022/12/18 13:39:25;;;;;;;17.58;11.05;;;;;;;;;;4957029;28;20234;-64
2022/12/18 13:41:53;;;;;;;14.95;10.10;;;;;;;;;;4956831;28;20182;-64
2022/12/18 13:44:31;;;;;;;13.88;9.95;;;;;;;;;;4956738;28;20727;-64
2022/12/18 13:46:58;;;;;;;13.57;8.95;;;;;;;;;;4956894;28;20190;-64
2022/12/18 13:49:29;;;;;;;13.80;10.23;;;;;;;;;;4956956;28;20206;-64
2022/12/18 13:51:56;;;;;;;12.43;9.23;;;;;;;;;;4956082;28;20274;-65
2022/12/18 13:54:26;;;;;;;13.13;10.05;;;;;;;;;;4956251;28;20228;-65
2022/12/18 13:56:54;;;;;;;14.23;10.25;;;;;;;;;;4956193;28;20187;-65
2022/12/18 13:59:22;;;;;;;12.70;9.13;;;;;;;;;;4956364;28;20563;-65
2022/12/18 14:01:53;;;;;;;13.13;9.73;;;;;;;;;;4956022;28;20665;-65
2022/12/18 14:04:22;;;;;;;15.25;9.35;;;;;;;;;;4956345;28;20585;-65
2022/12/18 14:06:51;;;;;;;15.05;10.10;;;;;;;;;;4955944;28;20198;-65
2022/12/18 14:09:26;;;;;;;15.90;9.75;;;;;;;;;;4955809;28;20208;-64
2022/12/18 14:12:56;;;;;;;20.02;10.40;;;;;;;;;;4956256;28;20187;-65
2022/12/18 14:14:42;;;;;;;12.38;8.90;;;;;;;;;;4956039;28;20202;-64
2022/12/18 14:17:12;;;;;;;14.43;9.50;;;;;;;;;;4956172;28;20197;-65
2022/12/18 14:19:42;;;;;;;13.77;10.65;;;;;;;;;;4955862;28;20214;-64
2022/12/18 14:22:13;;;;;;;14.38;10.57;;;;;;;;;;4956489;28;20283;-64
2022/12/18 14:24:41;;;;;;;14.52;10.30;;;;;;;;;;4956050;28;20282;-64
2022/12/18 14:27:14;;;;;;;13.90;10.05;;;;;;;;;;4955702;28;20212;-65
2022/12/18 14:29:44;;;;;;;11.27;9.15;;;;;;;;;;4955518;28;20188;-64
2022/12/18 14:32:16;;;;;;;11.55;8.98;;;;;;;;;;4955969;28;20184;-64
2022/12/18 14:34:44;;;;;;;17.73;10.77;;;;;;;;;;4955309;28;20676;-64
2022/12/18 14:37:12;;;;;;;13.32;10.02;;;;;;;;;;4955692;28;20289;-65
2022/12/18 14:39:39;;;;;;;12.70;9.07;;;;;;;;;;4955278;28;20209;-65